| Date | Time | Temp. (oF) | Dew Point (oF) | Rel. Hum. (%) | Press. (in.) | Wind Dir. | Wind Speed (mph) | Hourly Rainfall (in.) |
|
|---|---|---|---|---|---|---|---|---|---|
| 1 | 10/28 | 00:00 | 50 | 44 | 81 | 30.02 | SE | 1 | 0.00 |
| 2 | 10/27 | 23:00 | 50 | 44 | 81 | 30.03 | SE | 1 | 0.00 |
| 3 | 10/27 | 22:00 | 50 | 43 | 79 | 30.03 | ENE | 2 | 0.00 |
| 4 | 10/27 | 21:00 | 52 | 42 | 70 | 30.03 | NE | 1 | 0.00 |
| 5 | 10/27 | 20:00 | 55 | 43 | 65 | 30.03 | SE | 2 | 0.00 |
| 6 | 10/27 | 19:00 | 57 | 42 | 59 | 30.01 | SE | 2 | 0.00 |
| 7 | 10/27 | 18:00 | 60 | 42 | 53 | 30.01 | SSE | 2 | 0.00 |
| 8 | 10/27 | 17:00 | 63 | 43 | 50 | 30.00 | SSE | 3 | 0.00 |
| 9 | 10/27 | 16:00 | 63 | 41 | 46 | 29.99 | SE | 3 | 0.00 |
| 10 | 10/27 | 15:00 | 64 | 40 | 42 | 30.00 | SE | 10 | 0.00 |
| 11 | 10/27 | 14:00 | 64 | 39 | 40 | 30.02 | SSE | 2 | 0.00 |
| 12 | 10/27 | 13:00 | 61 | 38 | 44 | 30.04 | S | 7 | 0.00 |
| 13 | 10/27 | 12:00 | 58 | 34 | 42 | 30.07 | S | 8 | 0.00 |
| 14 | 10/27 | 11:00 | 55 | 39 | 55 | 30.07 | SSE | 2 | 0.00 |
| 15 | 10/27 | 10:00 | 47 | 40 | 78 | 30.08 | ESE | 1 | 0.00 |
| 16 | 10/27 | 09:00 | 38 | 37 | 99 | 30.08 | SSW | 0 | 0.00 |
| 17 | 10/27 | 08:00 | 33 | 32 | 100 | 30.07 | SSW | 1 | 0.00 |
| 18 | 10/27 | 07:00 | 33 | 32 | 100 | 30.06 | SSW | 0 | 0.00 |
| 19 | 10/27 | 06:00 | 34 | 33 | 100 | 30.04 | SSW | 1 | 0.00 |
| 20 | 10/27 | 05:00 | 35 | 35 | 100 | 30.04 | SSW | 1 | 0.00 |
| 21 | 10/27 | 04:00 | 35 | 34 | 97 | 30.02 | SSW | 0 | 0.00 |
| 22 | 10/27 | 03:00 | 37 | 35 | 94 | 30.00 | SSW | 0 | 0.00 |
| 23 | 10/27 | 02:00 | 38 | 35 | 89 | 29.98 | SSW | 0 | 0.00 |
| 24 | 10/27 | 01:00 | 39 | 36 | 89 | 29.97 | SW | 0 | 0.00 |